This is the latest recevied weather packets stored in our database for station/object KY0TEQ-13. If no packets are shown the sender has not sent any weather packets the latest 10 day(s).
| Time | Temp. | Humidity | Pressure | Rain* | Wind** | Luminosity | Snow |
|---|---|---|---|---|---|---|---|
| 1777574432 | 15.56° C | 18% | 1299.3 hPa | 0 mm | - | 496 W/m² | - |
| 1777572910 | 14.44° C | 18% | 1299.4 hPa | 0 mm | - | 326 W/m² | - |
| 1777571694 | 14.44° C | 18% | 1299.9 hPa | 0 mm | - | 801 W/m² | - |
| 1777570478 | 15° C | 18% | 1299.9 hPa | 0 mm | - | 879 W/m² | - |
| 1777569870 | 14.44° C | 20% | 1300.1 hPa | 0 mm | - | 264 W/m² | - |
| 1777569566 | 13.33° C | 19% | 1300.1 hPa | 0 mm | - | 869 W/m² | - |
| 1777568959 | 15° C | 19% | 1300.1 hPa | 0 mm | - | 273 W/m² | - |
| 1777564714 | 12.22° C | 30% | 1300.9 hPa | 0 mm | - | 535 W/m² | - |
| 1777564106 | 12.78° C | 28% | 1300.7 hPa | 0 mm | - | 504 W/m² | - |
| 1777560165 | 10° C | 37% | 1301.2 hPa | 0 mm | - | 277 W/m² | - |
| 1777559557 | 10° C | 33% | 1301.5 hPa | 0 mm | - | 243 W/m² | - |
| 1777557431 | 7.78° C | 41% | 1301.6 hPa | 0 mm | - | 140 W/m² | - |
| 1777555308 | 5.56° C | 45% | 1301.5 hPa | 0 mm | - | 63 W/m² | - |
| 1777553184 | 2.22° C | 54% | 1301.2 hPa | 0 mm | - | 20 W/m² | - |
| 1777552575 | 1.11° C | 58% | 1301.2 hPa | 0 mm | - | 12 W/m² | - |
| 1777551969 | 2.22° C | 55% | 1301.1 hPa | 0 mm | - | 6 W/m² | - |
| 1777551666 | 2.22° C | 54% | 1301.2 hPa | 0 mm | - | 4 W/m² | - |
| 1777551364 | 2.22° C | 55% | 1300.9 hPa | 0 mm | - | 2 W/m² | - |
| 1777551060 | 2.22° C | 54% | 1301.2 hPa | 0 mm | - | 1 W/m² | - |
| 1777550453 | 3.33° C | 52% | 1301.2 hPa | 0 mm | - | 0 W/m² | - |
| 1777548935 | 1.67° C | 59% | 1300.9 hPa | 0 mm | - | 0 W/m² | - |
| 1777548328 | 2.78° C | 53% | 1301.1 hPa | 0 mm | - | 0 W/m² | - |
| 1777547721 | 3.89° C | 49% | 1301 hPa | 0 mm | - | 0 W/m² | - |
| 1777547418 | 2.78° C | 54% | 1300.9 hPa | 0 mm | - | 0 W/m² | - |
| 1777545296 | 2.78° C | 53% | 1301.1 hPa | 0 mm | - | 0 W/m² | - |
* Rain latest hour (hover to see other rain measurements)
** Current wind speed in m/s (hover to see current wind gust speed)